Time;durP1;ratioP1;P1;durP2;ratioP2;P2;SDS_P1;SDS_P2;PMS_P1;PMS_P2;Temp;Humidity;BMP_temperature;BMP_pressure;BME280_temperature;BME280_humidity;BME280_pressure;Samples;Min_cycle;Max_cycle;Signal;HPM_P1;HPM_P2
2021/04/24 00:00:59;;;;;;;55.50;46.40;;;;;;;;;;4374589;32;20647;-86
2021/04/24 00:03:28;;;;;;;62.47;46.83;;;;;;;;;;4380958;32;20108;-88
2021/04/24 00:05:58;;;;;;;59.20;52.20;;;;;;;;;;4397355;32;20350;-89
2021/04/24 00:08:27;;;;;;;49.13;33.85;;;;;;;;;;4385238;32;20122;-86
2021/04/24 00:10:55;;;;;;;47.88;34.20;;;;;;;;;;4379593;32;20833;-89
2021/04/24 00:13:23;;;;;;;55.45;50.45;;;;;;;;;;4378803;32;20151;-88
2021/04/24 00:15:52;;;;;;;36.22;32.40;;;;;;;;;;4397323;32;20467;-88
2021/04/24 00:18:20;;;;;;;41.15;33.70;;;;;;;;;;4398044;32;20059;-87
2021/04/24 00:20:48;;;;;;;48.65;43.70;;;;;;;;;;4381464;32;20070;-85
2021/04/24 00:23:17;;;;;;;45.47;40.70;;;;;;;;;;4397661;32;20495;-87
2021/04/24 00:25:45;;;;;;;52.92;48.38;;;;;;;;;;4397929;32;20054;-86
2021/04/24 00:28:18;;;;;;;48.38;43.78;;;;;;;;;;4389186;32;20047;-87
2021/04/24 00:30:46;;;;;;;39.40;32.75;;;;;;;;;;4367467;32;20074;-86
2021/04/24 00:33:17;;;;;;;56.40;51.00;;;;;;;;;;4379276;32;20118;-88
2021/04/24 00:35:46;;;;;;;48.85;43.35;;;;;;;;;;4367742;32;20096;-90
2021/04/24 00:38:18;;;;;;;52.78;40.67;;;;;;;;;;4383659;32;20137;-85
2021/04/24 00:40:47;;;;;;;52.17;46.65;;;;;;;;;;4396190;32;20449;-88
2021/04/24 00:43:16;;;;;;;42.88;38.50;;;;;;;;;;4379931;32;20098;-86
2021/04/24 00:45:45;;;;;;;69.78;63.97;;;;;;;;;;4383731;32;20058;-88
2021/04/24 00:48:13;;;;;;;77.43;71.68;;;;;;;;;;4382544;32;20122;-86
2021/04/24 00:50:42;;;;;;;75.90;70.30;;;;;;;;;;4378770;32;20078;-86
2021/04/24 00:53:12;;;;;;;93.87;86.25;;;;;;;;;;4395331;32;20050;-89
2021/04/24 00:55:41;;;;;;;77.37;70.95;;;;;;;;;;4365697;32;21811;-88
2021/04/24 00:58:11;;;;;;;79.28;72.37;;;;;;;;;;4378158;32;20047;-89
2021/04/24 01:00:39;;;;;;;48.50;40.70;;;;;;;;;;4379951;32;20453;-85
2021/04/24 01:03:08;;;;;;;70.62;64.50;;;;;;;;;;4366819;32;20055;-86
2021/04/24 01:05:39;;;;;;;74.75;66.87;;;;;;;;;;4379254;32;20126;-87
2021/04/24 01:08:08;;;;;;;76.78;69.55;;;;;;;;;;4389180;32;21956;-89
2021/04/24 01:10:43;;;;;;;77.53;60.22;;;;;;;;;;4380641;32;20059;-86
2021/04/24 01:13:13;;;;;;;58.40;48.10;;;;;;;;;;4396609;32;20062;-86
2021/04/24 01:15:41;;;;;;;60.30;54.22;;;;;;;;;;4394696;32;20035;-87
2021/04/24 01:18:09;;;;;;;84.97;77.15;;;;;;;;;;4392815;32;20628;-87
2021/04/24 01:20:39;;;;;;;57.35;51.37;;;;;;;;;;4380811;32;20096;-86
2021/04/24 01:23:14;;;;;;;68.25;62.53;;;;;;;;;;4389742;32;20070;-85
2021/04/24 01:25:46;;;;;;;54.95;47.58;;;;;;;;;;4376464;32;20117;-87
2021/04/24 01:28:14;;;;;;;66.70;60.90;;;;;;;;;;4375933;32;20116;-86
2021/04/24 01:30:44;;;;;;;60.45;54.40;;;;;;;;;;4396032;32;20108;-86
2021/04/24 01:33:12;;;;;;;50.88;45.35;;;;;;;;;;4370230;32;20062;-87
2021/04/24 01:35:41;;;;;;;72.07;66.05;;;;;;;;;;4365417;32;20156;-85
2021/04/24 01:38:10;;;;;;;49.72;44.33;;;;;;;;;;4388004;32;20070;-85
2021/04/24 01:40:38;;;;;;;48.85;44.08;;;;;;;;;;4381835;32;20114;-85
2021/04/24 01:43:06;;;;;;;65.70;58.75;;;;;;;;;;4395685;32;20135;-88
2021/04/24 01:45:35;;;;;;;62.83;57.15;;;;;;;;;;4378564;32;20127;-83
2021/04/24 01:48:06;;;;;;;64.97;59.40;;;;;;;;;;4377183;32;20483;-87
2021/04/24 01:50:36;;;;;;;66.15;60.17;;;;;;;;;;4379397;32;20122;-85
2021/04/24 01:53:06;;;;;;;53.33;48.40;;;;;;;;;;4380949;32;20475;-87
2021/04/24 01:55:38;;;;;;;51.78;47.15;;;;;;;;;;4375638;32;20056;-88
2021/04/24 01:58:09;;;;;;;49.55;44.78;;;;;;;;;;4377825;32;20047;-86
2021/04/24 02:00:42;;;;;;;70.10;64.25;;;;;;;;;;4394187;32;20061;-87
2021/04/24 02:03:14;;;;;;;65.78;60.05;;;;;;;;;;4368848;32;20148;-86
2021/04/24 02:05:44;;;;;;;51.05;45.65;;;;;;;;;;4389901;32;20495;-86
2021/04/24 02:08:14;;;;;;;71.70;65.32;;;;;;;;;;4390745;32;20113;-86
2021/04/24 02:10:46;;;;;;;70.22;64.18;;;;;;;;;;4365202;32;20685;-85
2021/04/24 02:13:18;;;;;;;65.35;59.83;;;;;;;;;;4381937;32;20088;-85
2021/04/24 02:15:46;;;;;;;61.45;56.20;;;;;;;;;;4380332;32;20080;-87
2021/04/24 02:18:14;;;;;;;79.22;72.85;;;;;;;;;;4370438;32;20222;-86
2021/04/24 02:20:43;;;;;;;72.55;66.82;;;;;;;;;;4383717;32;20098;-84
2021/04/24 02:23:12;;;;;;;75.65;69.72;;;;;;;;;;4370689;32;20059;-87
2021/04/24 02:25:41;;;;;;;60.12;54.95;;;;;;;;;;4393996;32;20158;-86
2021/04/24 02:28:09;;;;;;;67.22;61.67;;;;;;;;;;4378868;32;20072;-86
2021/04/24 02:30:37;;;;;;;61.22;55.95;;;;;;;;;;4371876;32;20093;-86
2021/04/24 02:33:06;;;;;;;60.10;54.72;;;;;;;;;;4373361;32;20501;-85
2021/04/24 02:35:42;;;;;;;62.85;57.97;;;;;;;;;;4394081;32;20069;-85
2021/04/24 02:38:12;;;;;;;60.70;56.08;;;;;;;;;;4371007;32;20547;-88
2021/04/24 02:40:43;;;;;;;60.20;54.13;;;;;;;;;;4386012;32;20131;-87
2021/04/24 02:43:14;;;;;;;53.92;49.40;;;;;;;;;;4381255;32;20461;-84
2021/04/24 02:45:42;;;;;;;64.30;59.72;;;;;;;;;;4378881;32;20410;-87
2021/04/24 02:48:10;;;;;;;60.92;56.13;;;;;;;;;;4392578;32;20723;-88
2021/04/24 02:50:38;;;;;;;54.33;49.35;;;;;;;;;;4385021;32;20063;-87
2021/04/24 02:53:06;;;;;;;69.93;64.37;;;;;;;;;;4383379;32;20410;-86
2021/04/24 02:55:36;;;;;;;67.45;61.88;;;;;;;;;;4381652;32;20451;-88
2021/04/24 02:58:05;;;;;;;49.17;45.72;;;;;;;;;;4369360;32;20055;-84
2021/04/24 03:00:36;;;;;;;55.05;51.60;;;;;;;;;;4385548;32;20054;-86
2021/04/24 03:03:08;;;;;;;37.70;34.88;;;;;;;;;;4368632;32;20145;-86
2021/04/24 03:05:37;;;;;;;48.58;44.75;;;;;;;;;;4396051;32;20077;-85
2021/04/24 03:08:08;;;;;;;52.72;48.60;;;;;;;;;;4371732;32;20414;-88
2021/04/24 03:10:37;;;;;;;47.03;42.65;;;;;;;;;;4402287;26;20350;-95
2021/04/24 03:13:11;;;;;;;40.95;37.90;;;;;;;;;;4375905;32;20102;-95
2021/04/24 03:15:46;;;;;;;45.47;41.83;;;;;;;;;;4386856;32;20069;-96
2021/04/24 03:18:18;;;;;;;46.33;42.05;;;;;;;;;;4381464;32;20063;-96
2021/04/24 03:20:51;;;;;;;56.88;51.35;;;;;;;;;;4378413;32;20059;-95
2021/04/24 03:23:22;;;;;;;50.63;45.45;;;;;;;;;;4377608;32;20062;-95
2021/04/24 03:25:56;;;;;;;60.55;54.78;;;;;;;;;;4378582;32;20061;-95
2021/04/24 03:28:32;;;;;;;62.90;57.05;;;;;;;;;;4388020;32;20112;-94
2021/04/24 03:31:06;;;;;;;67.87;62.38;;;;;;;;;;4384240;32;20082;-95
2021/04/24 03:33:39;;;;;;;37.90;34.92;;;;;;;;;;4388584;32;20086;-95
2021/04/24 03:36:10;;;;;;;57.20;52.13;;;;;;;;;;4382198;32;20066;-94
2021/04/24 03:38:42;;;;;;;64.75;59.38;;;;;;;;;;4379328;32;20039;-96
2021/04/24 03:41:12;;;;;;;56.37;52.05;;;;;;;;;;4377488;32;20062;-96
2021/04/24 03:43:47;;;;;;;62.22;57.40;;;;;;;;;;4375476;32;20812;-95
2021/04/24 03:46:21;;;;;;;50.95;46.47;;;;;;;;;;4383129;32;20069;-94
2021/04/24 03:48:56;;;;;;;33.78;30.98;;;;;;;;;;4383378;32;20051;-96
2021/04/24 03:51:27;;;;;;;54.83;51.03;;;;;;;;;;4378319;32;20077;-96
2021/04/24 03:54:02;;;;;;;38.30;35.15;;;;;;;;;;4378343;32;20436;-94
2021/04/24 03:56:34;;;;;;;40.38;36.80;;;;;;;;;;4379875;32;20100;-95
2021/04/24 03:59:02;;;;;;;38.67;35.40;;;;;;;;;;4380166;32;20090;-96
2021/04/24 04:01:33;;;;;;;38.35;35.22;;;;;;;;;;4384459;32;20102;-95
2021/04/24 04:04:02;;;;;;;38.47;35.58;;;;;;;;;;4374863;32;20396;-96
2021/04/24 04:06:32;;;;;;;45.92;41.90;;;;;;;;;;4380961;32;20157;-96
2021/04/24 04:09:06;;;;;;;50.03;45.93;;;;;;;;;;4376366;32;20043;-96
2021/04/24 04:11:38;;;;;;;53.28;48.65;;;;;;;;;;4383082;32;20073;-95
2021/04/24 04:14:06;;;;;;;53.75;49.53;;;;;;;;;;4385879;32;20085;-95
2021/04/24 04:16:35;;;;;;;54.90;50.50;;;;;;;;;;4380303;32;20418;-96
2021/04/24 04:19:06;;;;;;;38.88;35.30;;;;;;;;;;4371458;32;20117;-96
2021/04/24 04:21:39;;;;;;;40.08;36.03;;;;;;;;;;4378843;32;20069;-96
2021/04/24 04:24:08;;;;;;;49.30;45.65;;;;;;;;;;4379274;32;20097;-96
2021/04/24 04:26:41;;;;;;;35.72;32.58;;;;;;;;;;4374937;32;20081;-96
2021/04/24 04:29:11;;;;;;;32.42;29.35;;;;;;;;;;4371734;32;20557;-95
2021/04/24 04:31:42;;;;;;;39.22;35.92;;;;;;;;;;4386426;32;20061;-95
2021/04/24 04:34:16;;;;;;;39.88;36.42;;;;;;;;;;4383708;32;20410;-95
2021/04/24 04:36:47;;;;;;;32.10;29.37;;;;;;;;;;4383284;32;20073;-96
2021/04/24 04:39:22;;;;;;;40.83;37.90;;;;;;;;;;4370771;32;20051;-95
2021/04/24 04:42:00;;;;;;;38.65;35.92;;;;;;;;;;4376607;32;20054;-96
2021/04/24 04:44:33;;;;;;;43.17;39.70;;;;;;;;;;4380494;32;20098;-96
2021/04/24 04:47:06;;;;;;;34.10;31.10;;;;;;;;;;4381372;32;20047;-96
2021/04/24 04:49:34;;;;;;;43.28;40.15;;;;;;;;;;4376706;32;20039;-95
2021/04/24 04:52:07;;;;;;;37.00;33.95;;;;;;;;;;4391719;32;20415;-96
2021/04/24 04:54:38;;;;;;;40.83;37.65;;;;;;;;;;4385670;32;20156;-96
2021/04/24 04:57:09;;;;;;;41.83;38.65;;;;;;;;;;4381960;32;20094;-96
2021/04/24 04:59:37;;;;;;;43.13;39.72;;;;;;;;;;4378484;32;20062;-95
2021/04/24 05:02:11;;;;;;;34.20;31.27;;;;;;;;;;4377602;32;20046;-96
2021/04/24 05:04:45;;;;;;;46.37;42.55;;;;;;;;;;4381668;32;20395;-96
2021/04/24 05:07:13;;;;;;;34.65;31.75;;;;;;;;;;4374278;32;20055;-96
2021/04/24 05:09:49;;;;;;;34.63;31.55;;;;;;;;;;4388985;32;20379;-96
2021/04/24 05:12:38;;;;;;;44.53;41.42;;;;;;;;;;4378199;32;20090;-96
2021/04/24 05:15:06;;;;;;;45.88;42.45;;;;;;;;;;4377408;32;20059;-95
2021/04/24 05:17:40;;;;;;;41.88;38.88;;;;;;;;;;4376890;32;20118;-96
2021/04/24 05:20:11;;;;;;;47.20;43.63;;;;;;;;;;4372245;32;20055;-96
2021/04/24 05:22:46;;;;;;;47.40;43.97;;;;;;;;;;4375974;32;20038;-96
2021/04/24 05:25:22;;;;;;;50.78;47.20;;;;;;;;;;4383401;32;20090;-95
2021/04/24 05:27:52;;;;;;;34.03;31.27;;;;;;;;;;4367103;32;20096;-96
2021/04/24 05:30:24;;;;;;;43.45;39.92;;;;;;;;;;4374242;32;20059;-96
2021/04/24 05:32:59;;;;;;;35.17;32.10;;;;;;;;;;4378593;32;20118;-95
2021/04/24 05:35:30;;;;;;;42.95;39.15;;;;;;;;;;4376883;32;20153;-95
2021/04/24 05:38:00;;;;;;;44.53;41.17;;;;;;;;;;4372946;32;20047;-96
2021/04/24 05:40:32;;;;;;;47.47;43.50;;;;;;;;;;4371796;32;20521;-95
2021/04/24 05:43:03;;;;;;;36.20;32.97;;;;;;;;;;4373730;32;20077;-96
2021/04/24 05:45:35;;;;;;;47.78;44.35;;;;;;;;;;4376425;32;20459;-95
2021/04/24 05:48:10;;;;;;;47.25;43.72;;;;;;;;;;4399863;32;20110;-95
2021/04/24 05:50:42;;;;;;;32.65;30.42;;;;;;;;;;4375513;32;20134;-96
2021/04/24 05:53:15;;;;;;;34.95;32.55;;;;;;;;;;4376363;32;20121;-96
2021/04/24 05:55:44;;;;;;;34.90;31.90;;;;;;;;;;4376755;32;20046;-96
2021/04/24 05:58:15;;;;;;;42.22;39.42;;;;;;;;;;4377759;32;20067;-95
2021/04/24 06:00:46;;;;;;;34.47;31.52;;;;;;;;;;4375502;32;20073;-96
2021/04/24 06:03:16;;;;;;;39.13;36.35;;;;;;;;;;4374478;32;20097;-96
2021/04/24 06:05:49;;;;;;;38.58;35.88;;;;;;;;;;4375764;32;20096;-96
2021/04/24 06:08:19;;;;;;;42.17;38.85;;;;;;;;;;4376183;32;20407;-96
2021/04/24 06:10:49;;;;;;;43.35;40.38;;;;;;;;;;4380427;32;20133;-95
2021/04/24 06:13:21;;;;;;;43.65;40.50;;;;;;;;;;4375172;32;20177;-96
2021/04/24 06:15:53;;;;;;;39.80;36.67;;;;;;;;;;4388405;32;20093;-96
2021/04/24 06:18:22;;;;;;;47.45;44.13;;;;;;;;;;4375716;32;21643;-96
2021/04/24 06:20:57;;;;;;;39.15;36.03;;;;;;;;;;4372147;32;20775;-95
2021/04/24 06:23:29;;;;;;;45.65;42.15;;;;;;;;;;4374953;32;20473;-96
2021/04/24 06:25:58;;;;;;;38.67;36.10;;;;;;;;;;4385054;32;20059;-96
2021/04/24 06:28:27;;;;;;;42.20;39.15;;;;;;;;;;4374206;32;20118;-96
2021/04/24 06:30:55;;;;;;;43.60;40.00;;;;;;;;;;4372611;32;20883;-96
2021/04/24 06:33:23;;;;;;;47.60;43.83;;;;;;;;;;4375806;32;20047;-95
2021/04/24 06:35:59;;;;;;;72.90;67.32;;;;;;;;;;4377871;32;20077;-96
2021/04/24 06:38:33;;;;;;;46.50;42.80;;;;;;;;;;4373739;32;20093;-95
2021/04/24 06:41:06;;;;;;;38.30;35.15;;;;;;;;;;4372973;32;20118;-95
2021/04/24 06:43:34;;;;;;;46.60;43.15;;;;;;;;;;4372453;32;20407;-96
2021/04/24 06:46:07;;;;;;;76.97;71.47;;;;;;;;;;4363503;32;20047;-96
2021/04/24 06:48:45;;;;;;;64.57;59.47;;;;;;;;;;4385228;32;20058;-96
2021/04/24 06:51:18;;;;;;;65.85;60.80;;;;;;;;;;4398407;32;20689;-95
2021/04/24 06:53:48;;;;;;;77.30;72.00;;;;;;;;;;4375280;32;20051;-95
2021/04/24 06:56:23;;;;;;;67.60;61.97;;;;;;;;;;4386446;32;20058;-94
2021/04/24 06:58:55;;;;;;;70.62;65.12;;;;;;;;;;4376008;32;20054;-95
2021/04/24 07:01:23;;;;;;;63.33;58.40;;;;;;;;;;4380939;32;20121;-95
2021/04/24 07:03:51;;;;;;;64.03;59.33;;;;;;;;;;4379969;32;20376;-95
2021/04/24 07:06:21;;;;;;;62.38;57.88;;;;;;;;;;4380133;32;20047;-96
2021/04/24 07:08:56;;;;;;;91.15;85.47;;;;;;;;;;4387203;32;20054;-96
2021/04/24 07:11:26;;;;;;;104.10;98.25;;;;;;;;;;4385917;32;20059;-96
2021/04/24 07:13:54;;;;;;;102.22;95.75;;;;;;;;;;4377303;32;20447;-95
2021/04/24 07:16:25;;;;;;;96.55;91.18;;;;;;;;;;4369840;32;20215;-94
2021/04/24 07:18:57;;;;;;;59.83;55.55;;;;;;;;;;4374966;32;20114;-95
2021/04/24 07:21:31;;;;;;;93.55;86.57;;;;;;;;;;4375980;32;20136;-96
2021/04/24 07:24:06;;;;;;;122.37;113.93;;;;;;;;;;4375719;32;20083;-96
2021/04/24 07:26:47;;;;;;;59.75;55.20;;;;;;;;;;4377433;32;20086;-96
2021/04/24 07:29:54;;;;;;;52.15;48.75;;;;;;;;;;4400326;32;20072;-96
2021/04/24 07:32:38;;;;;;;191.18;181.60;;;;;;;;;;4399357;32;20020;-96
2021/04/24 07:35:59;;;;;;;52.25;49.10;;;;;;;;;;4411032;32;20124;-96
2021/04/24 07:41:46;;;;;;;27.80;25.37;;;;;;;;;;4420931;27;20034;-96
2021/04/24 07:44:37;;;;;;;25.48;23.40;;;;;;;;;;4384047;32;20047;-96
2021/04/24 07:47:42;;;;;;;25.27;23.58;;;;;;;;;;4386767;32;20070;-96
2021/04/24 07:50:13;;;;;;;30.73;28.55;;;;;;;;;;4382782;32;20062;-96
2021/04/24 07:52:46;;;;;;;43.13;40.38;;;;;;;;;;4383832;32;20100;-96
2021/04/24 07:55:21;;;;;;;47.23;44.47;;;;;;;;;;4378399;32;20139;-96
2021/04/24 07:57:51;;;;;;;27.73;25.73;;;;;;;;;;4378133;32;20039;-95
2021/04/24 08:00:30;;;;;;;34.42;32.20;;;;;;;;;;4384025;32;20050;-96
2021/04/24 08:03:54;;;;;;;34.00;31.67;;;;;;;;;;4407773;32;20046;-96
2021/04/24 08:10:39;;;;;;;26.80;25.00;;;;;;;;;;4418239;27;20090;-96
2021/04/24 08:13:08;;;;;;;42.28;39.30;;;;;;;;;;4389995;32;20050;-95
2021/04/24 08:15:40;;;;;;;23.77;22.02;;;;;;;;;;4385080;27;20594;-82
2021/04/24 08:18:10;;;;;;;23.00;21.33;;;;;;;;;;4346198;33;20103;-83
2021/04/24 08:20:42;;;;;;;21.58;20.15;;;;;;;;;;4349287;33;20057;-82
2021/04/24 08:23:13;;;;;;;18.65;17.35;;;;;;;;;;4352470;32;20118;-83
2021/04/24 08:25:41;;;;;;;22.40;21.00;;;;;;;;;;4350198;32;20556;-83
2021/04/24 08:28:12;;;;;;;25.77;23.95;;;;;;;;;;4350956;32;20045;-84
2021/04/24 08:30:40;;;;;;;24.52;22.83;;;;;;;;;;4351069;33;20055;-83
2021/04/24 08:33:11;;;;;;;26.08;24.33;;;;;;;;;;4354576;32;20079;-83
2021/04/24 08:35:43;;;;;;;23.92;22.23;;;;;;;;;;4346824;33;20060;-83
2021/04/24 08:38:11;;;;;;;19.73;18.55;;;;;;;;;;4352429;33;20106;-83
2021/04/24 08:40:41;;;;;;;18.27;17.05;;;;;;;;;;4334967;33;20544;-83
2021/04/24 08:43:11;;;;;;;19.70;18.23;;;;;;;;;;4351036;32;20055;-84
2021/04/24 08:45:41;;;;;;;19.17;17.92;;;;;;;;;;4345628;32;20648;-83
2021/04/24 08:48:09;;;;;;;17.95;16.65;;;;;;;;;;4348292;33;20176;-83
2021/04/24 08:50:40;;;;;;;19.45;18.15;;;;;;;;;;4351594;32;20040;-84
2021/04/24 08:53:11;;;;;;;16.13;15.00;;;;;;;;;;4335576;33;20083;-83
2021/04/24 08:55:41;;;;;;;17.05;15.95;;;;;;;;;;4350105;32;20082;-83
2021/04/24 08:58:11;;;;;;;19.58;18.02;;;;;;;;;;4348304;32;20210;-82
2021/04/24 09:00:40;;;;;;;18.15;16.85;;;;;;;;;;4348549;33;20532;-83
2021/04/24 09:03:10;;;;;;;17.65;16.30;;;;;;;;;;4352651;32;20377;-83
2021/04/24 09:05:38;;;;;;;15.85;14.75;;;;;;;;;;4349477;32;20406;-85
2021/04/24 09:08:10;;;;;;;15.93;14.82;;;;;;;;;;4350853;32;20062;-83
2021/04/24 09:10:42;;;;;;;17.85;16.25;;;;;;;;;;4350926;32;20067;-83
2021/04/24 09:13:12;;;;;;;;;;;;;;;;;;4356396;32;20118;-83
2021/04/24 09:15:43;;;;;;;19.37;17.98;;;;;;;;;;4345572;32;20024;-83
2021/04/24 09:18:14;;;;;;;18.48;17.40;;;;;;;;;;4343781;33;20146;-83
2021/04/24 09:20:42;;;;;;;17.73;16.42;;;;;;;;;;4349070;33;20091;-83
2021/04/24 09:23:13;;;;;;;23.55;22.05;;;;;;;;;;4352171;32;20067;-83
2021/04/24 09:25:46;;;;;;;19.08;17.85;;;;;;;;;;4346435;32;20070;-85
2021/04/24 09:28:32;;;;;;;34.58;32.03;;;;;;;;;;4345057;33;20063;-85
2021/04/24 09:31:14;;;;;;;24.20;22.58;;;;;;;;;;4345563;32;20127;-85
2021/04/24 09:33:46;;;;;;;23.48;21.98;;;;;;;;;;4354888;32;20073;-85
2021/04/24 09:36:18;;;;;;;19.50;18.27;;;;;;;;;;4350381;33;20107;-85
2021/04/24 09:38:47;;;;;;;21.90;20.70;;;;;;;;;;4351344;33;20611;-85
2021/04/24 09:41:18;;;;;;;17.20;15.82;;;;;;;;;;4344827;33;20114;-85
2021/04/24 09:43:46;;;;;;;25.05;23.58;;;;;;;;;;4351750;32;20066;-85
2021/04/24 09:46:18;;;;;;;26.83;25.10;;;;;;;;;;4349135;33;20165;-84
2021/04/24 09:48:47;;;;;;;24.35;22.48;;;;;;;;;;4350268;33;20502;-84
2021/04/24 09:51:18;;;;;;;;;;;;;;;;;;4347176;33;20109;-85
2021/04/24 09:53:56;;;;;;;19.67;18.42;;;;;;;;;;4346282;33;19947;-86
2021/04/24 09:56:26;;;;;;;18.58;17.48;;;;;;;;;;4344902;32;20140;-85
2021/04/24 09:59:09;;;;;;;17.90;16.70;;;;;;;;;;4345076;33;20071;-85
2021/04/24 10:01:41;;;;;;;20.48;19.05;;;;;;;;;;4348010;33;20119;-85
2021/04/24 10:04:13;;;;;;;18.48;17.35;;;;;;;;;;4347787;33;20051;-85
2021/04/24 10:06:43;;;;;;;17.70;16.58;;;;;;;;;;4350577;33;20090;-86
2021/04/24 10:09:16;;;;;;;18.52;17.12;;;;;;;;;;4346944;33;20078;-85
2021/04/24 10:11:46;;;;;;;20.83;19.60;;;;;;;;;;4347340;33;20175;-84
2021/04/24 10:14:29;;;;;;;17.23;16.33;;;;;;;;;;4348297;33;20099;-85
2021/04/24 10:16:57;;;;;;;17.23;16.12;;;;;;;;;;4349612;32;20119;-85
2021/04/24 10:19:29;;;;;;;22.85;21.50;;;;;;;;;;4346365;33;20528;-85
2021/04/24 10:21:59;;;;;;;17.85;16.85;;;;;;;;;;4347838;32;20048;-85
2021/04/24 10:24:28;;;;;;;18.67;17.48;;;;;;;;;;4349296;33;20560;-85
2021/04/24 10:26:59;;;;;;;24.73;23.42;;;;;;;;;;4351895;33;20040;-84
2021/04/24 10:29:27;;;;;;;20.88;19.77;;;;;;;;;;4351898;33;20158;-84
2021/04/24 10:32:00;;;;;;;106.07;97.43;;;;;;;;;;4331631;33;20093;-85
2021/04/24 10:34:28;;;;;;;39.55;37.22;;;;;;;;;;4348543;32;20103;-85
2021/04/24 10:36:59;;;;;;;25.50;23.92;;;;;;;;;;4350275;33;20571;-85
2021/04/24 10:39:28;;;;;;;77.70;72.85;;;;;;;;;;4349930;32;20054;-85
2021/04/24 10:42:12;;;;;;;57.38;53.95;;;;;;;;;;4332621;33;20060;-85
2021/04/24 10:45:00;;;;;;;99.53;92.88;;;;;;;;;;4334151;33;20111;-84
2021/04/24 10:47:38;;;;;;;52.97;49.95;;;;;;;;;;4349349;32;20064;-85
2021/04/24 10:50:07;;;;;;;41.97;39.55;;;;;;;;;;4351098;33;20261;-85
2021/04/24 10:52:42;;;;;;;102.25;95.62;;;;;;;;;;4352900;32;20093;-84
2021/04/24 10:55:16;;;;;;;148.00;137.23;;;;;;;;;;4354413;33;20069;-84
2021/04/24 10:57:49;;;;;;;58.80;55.63;;;;;;;;;;4349012;32;20146;-85
2021/04/24 11:00:18;;;;;;;49.30;46.45;;;;;;;;;;4352799;32;20098;-83
2021/04/24 11:02:56;;;;;;;74.65;70.30;;;;;;;;;;4349748;33;20180;-85
2021/04/24 11:05:43;;;;;;;36.22;34.30;;;;;;;;;;4346837;32;20107;-84
2021/04/24 11:08:20;;;;;;;37.88;35.90;;;;;;;;;;4347037;32;20508;-84
2021/04/24 11:10:58;;;;;;;29.50;27.70;;;;;;;;;;4347760;32;20067;-84
2021/04/24 11:13:31;;;;;;;53.78;50.58;;;;;;;;;;4350001;33;20119;-84
2021/04/24 11:16:03;;;;;;;37.28;35.22;;;;;;;;;;4337024;33;20103;-84
2021/04/24 11:18:33;;;;;;;;;;;;;;;;;;4352920;32;20129;-85
2021/04/24 11:21:09;;;;;;;68.12;64.35;;;;;;;;;;4333140;33;19967;-84
2021/04/24 11:23:42;;;;;;;134.07;125.00;;;;;;;;;;4350873;32;20063;-84
2021/04/24 11:26:14;;;;;;;36.17;33.75;;;;;;;;;;4347031;32;20037;-84
2021/04/24 11:28:57;;;;;;;83.90;79.00;;;;;;;;;;4351645;32;20047;-84
2021/04/24 11:31:46;;;;;;;43.83;41.33;;;;;;;;;;4352219;32;20163;-85
2021/04/24 11:34:25;;;;;;;107.00;100.32;;;;;;;;;;4353641;32;20123;-86
2021/04/24 11:37:13;;;;;;;45.40;42.40;;;;;;;;;;4355671;32;20036;-84
2021/04/24 11:40:03;;;;;;;41.30;38.83;;;;;;;;;;4335118;33;20198;-85
2021/04/24 11:42:37;;;;;;;44.20;41.53;;;;;;;;;;4349529;33;20466;-84
2021/04/24 11:45:15;;;;;;;50.58;47.67;;;;;;;;;;4352674;33;20097;-85
2021/04/24 11:47:50;;;;;;;42.03;39.55;;;;;;;;;;4352927;33;20111;-85
2021/04/24 11:50:21;;;;;;;88.05;82.75;;;;;;;;;;4351765;32;20221;-84
2021/04/24 11:52:52;;;;;;;54.85;51.50;;;;;;;;;;4347864;32;20051;-85
2021/04/24 11:55:25;;;;;;;88.00;83.05;;;;;;;;;;4349030;32;20573;-83
2021/04/24 11:58:12;;;;;;;110.03;103.57;;;;;;;;;;4350463;32;20101;-84
2021/04/24 12:00:43;;;;;;;54.75;51.40;;;;;;;;;;4351878;32;20454;-85
2021/04/24 12:03:14;;;;;;;77.55;73.20;;;;;;;;;;4349466;32;20138;-84
2021/04/24 12:05:45;;;;;;;82.88;77.80;;;;;;;;;;4353918;32;20051;-83
2021/04/24 12:08:22;;;;;;;42.15;39.58;;;;;;;;;;4356333;32;20102;-85
2021/04/24 12:10:55;;;;;;;60.25;56.78;;;;;;;;;;4356646;32;20486;-84
2021/04/24 12:13:26;;;;;;;40.92;38.20;;;;;;;;;;4349610;32;20063;-84
2021/04/24 12:15:56;;;;;;;67.28;63.45;;;;;;;;;;4341634;33;20114;-84
2021/04/24 12:18:29;;;;;;;41.70;39.15;;;;;;;;;;4352345;32;20454;-84
2021/04/24 12:20:58;;;;;;;58.85;55.67;;;;;;;;;;4358273;32;20071;-84
2021/04/24 12:23:26;;;;;;;65.00;61.10;;;;;;;;;;4338696;33;20454;-84
2021/04/24 12:25:57;;;;;;;47.42;44.53;;;;;;;;;;4350927;32;20059;-84
2021/04/24 12:28:28;;;;;;;83.62;78.62;;;;;;;;;;4342971;33;20095;-84
2021/04/24 12:30:58;;;;;;;66.87;63.00;;;;;;;;;;4342873;33;20117;-84
2021/04/24 12:33:31;;;;;;;47.85;45.08;;;;;;;;;;4349418;33;20056;-84
2021/04/24 12:36:03;;;;;;;141.02;132.48;;;;;;;;;;4342438;33;20090;-85
2021/04/24 12:38:33;;;;;;;39.75;37.42;;;;;;;;;;4344115;33;20076;-84
2021/04/24 12:41:05;;;;;;;91.87;86.70;;;;;;;;;;4357393;32;20506;-83
2021/04/24 12:43:39;;;;;;;192.35;179.27;;;;;;;;;;4345961;32;20119;-83
2021/04/24 12:46:13;;;;;;;107.78;101.75;;;;;;;;;;4341796;33;20071;-83
2021/04/24 12:48:46;;;;;;;71.45;67.32;;;;;;;;;;4350290;33;20063;-84
2021/04/24 12:51:15;;;;;;;72.32;68.32;;;;;;;;;;4358032;32;20093;-83
2021/04/24 12:53:53;;;;;;;56.50;53.28;;;;;;;;;;4353923;32;20064;-83
2021/04/24 12:56:28;;;;;;;160.32;149.40;;;;;;;;;;4345802;32;20078;-85
2021/04/24 12:59:03;;;;;;;88.47;83.15;;;;;;;;;;4342991;33;20074;-84
2021/04/24 13:01:35;;;;;;;60.00;56.17;;;;;;;;;;4354985;32;20111;-84
2021/04/24 13:04:13;;;;;;;60.72;57.28;;;;;;;;;;4352928;32;20172;-84
2021/04/24 13:06:55;;;;;;;53.55;50.45;;;;;;;;;;4355361;33;20457;-83
2021/04/24 13:09:36;;;;;;;66.37;62.33;;;;;;;;;;4356194;32;20051;-84
2021/04/24 13:12:08;;;;;;;47.72;44.92;;;;;;;;;;4350194;33;20064;-84
2021/04/24 13:14:47;;;;;;;73.05;67.87;;;;;;;;;;4350097;33;20063;-83
2021/04/24 13:17:25;;;;;;;65.90;61.37;;;;;;;;;;4355480;32;20145;-83
2021/04/24 13:20:01;;;;;;;154.73;145.77;;;;;;;;;;4354904;32;20082;-83
2021/04/24 13:22:33;;;;;;;86.95;80.57;;;;;;;;;;4356575;32;20055;-83
2021/04/24 13:25:05;;;;;;;238.93;221.10;;;;;;;;;;4346861;32;20036;-83
2021/04/24 13:27:33;;;;;;;196.43;184.32;;;;;;;;;;4340675;33;20107;-82
2021/04/24 13:30:05;;;;;;;71.15;66.90;;;;;;;;;;4340384;33;20340;-84
2021/04/24 13:32:36;;;;;;;130.80;123.00;;;;;;;;;;4340447;33;20090;-84
2021/04/24 13:35:06;;;;;;;295.98;270.75;;;;;;;;;;4349566;33;20048;-82
2021/04/24 13:37:37;;;;;;;201.77;189.20;;;;;;;;;;4354386;32;20048;-84
2021/04/24 13:40:08;;;;;;;183.07;171.70;;;;;;;;;;4351734;32;20367;-84
2021/04/24 13:42:41;;;;;;;257.52;241.02;;;;;;;;;;4339571;33;20060;-83
2021/04/24 13:45:15;;;;;;;81.68;76.40;;;;;;;;;;4350248;33;20048;-84
2021/04/24 13:47:51;;;;;;;133.85;125.32;;;;;;;;;;4354285;33;20097;-83
2021/04/24 13:50:22;;;;;;;309.30;286.55;;;;;;;;;;4356067;32;20051;-82
2021/04/24 13:52:54;;;;;;;89.25;84.03;;;;;;;;;;4355124;33;20129;-82
2021/04/24 13:55:24;;;;;;;125.57;118.43;;;;;;;;;;4346053;32;20124;-84
2021/04/24 13:58:02;;;;;;;425.87;391.12;;;;;;;;;;4349280;33;20067;-83
2021/04/24 14:00:33;;;;;;;62.97;58.75;;;;;;;;;;4354555;33;20099;-83
2021/04/24 14:03:04;;;;;;;86.60;81.37;;;;;;;;;;4339501;33;20079;-84
2021/04/24 14:05:32;;;;;;;122.87;115.00;;;;;;;;;;4348616;33;20094;-83
2021/04/24 14:08:03;;;;;;;298.52;277.08;;;;;;;;;;4340181;33;20107;-83
2021/04/24 14:10:34;;;;;;;220.63;204.85;;;;;;;;;;4343754;33;20119;-83
2021/04/24 14:13:06;;;;;;;202.70;188.60;;;;;;;;;;4343176;33;20047;-83
2021/04/24 14:15:57;;;;;;;119.15;110.97;;;;;;;;;;4353239;32;20051;-82
2021/04/24 14:18:25;;;;;;;188.95;174.07;;;;;;;;;;4358037;32;20121;-83
2021/04/24 14:20:55;;;;;;;168.85;157.55;;;;;;;;;;4360030;32;20090;-83
2021/04/24 14:23:26;;;;;;;67.40;63.05;;;;;;;;;;4357860;33;20051;-83
2021/04/24 14:25:57;;;;;;;35.50;33.13;;;;;;;;;;4352090;32;20453;-83
2021/04/24 14:28:28;;;;;;;84.53;78.37;;;;;;;;;;4359623;32;20052;-82
2021/04/24 14:31:00;;;;;;;106.80;99.03;;;;;;;;;;4356224;32;20565;-83
2021/04/24 14:33:30;;;;;;;34.95;32.42;;;;;;;;;;4356897;32;20794;-83
2021/04/24 14:36:01;;;;;;;66.53;61.80;;;;;;;;;;4355694;33;20098;-83
2021/04/24 14:38:32;;;;;;;176.55;162.98;;;;;;;;;;4345862;33;20063;-82
2021/04/24 14:41:02;;;;;;;52.72;49.25;;;;;;;;;;4343844;33;20114;-83
2021/04/24 14:43:33;;;;;;;44.67;41.83;;;;;;;;;;4342688;33;20110;-83
2021/04/24 14:46:04;;;;;;;98.50;92.15;;;;;;;;;;4349107;33;20070;-83
2021/04/24 14:48:35;;;;;;;87.03;81.15;;;;;;;;;;4358286;32;20060;-82
2021/04/24 14:51:07;;;;;;;180.68;167.57;;;;;;;;;;4358031;32;20078;-82
2021/04/24 14:53:38;;;;;;;63.63;59.40;;;;;;;;;;4338497;33;20048;-83